sensor_id;sensor_type;location;lat;lon;timestamp;pressure;altitude;pressure_sealevel;temperature;humidity
76156;BME280;64906;51.290;7.348;2023-10-08T00:02:26;99387.47;;;20.67;55.99
76156;BME280;64906;51.290;7.348;2023-10-08T00:04:53;99385.00;;;20.66;56.28
76156;BME280;64906;51.290;7.348;2023-10-08T00:07:20;99399.81;;;20.65;56.10
76156;BME280;64906;51.290;7.348;2023-10-08T00:09:50;99391.03;;;20.68;56.14
76156;BME280;64906;51.290;7.348;2023-10-08T00:12:19;99395.97;;;20.66;56.04
76156;BME280;64906;51.290;7.348;2023-10-08T00:14:45;99384.19;;;20.65;56.49
76156;BME280;64906;51.290;7.348;2023-10-08T00:17:15;99412.44;;;20.66;56.52
76156;BME280;64906;51.290;7.348;2023-10-08T00:19:40;99414.09;;;20.67;56.25
76156;BME280;64906;51.290;7.348;2023-10-08T00:22:08;99407.50;;;20.68;56.19
76156;BME280;64906;51.290;7.348;2023-10-08T00:24:35;99400.66;;;20.65;56.25
76156;BME280;64906;51.290;7.348;2023-10-08T00:27:03;99418.47;;;20.63;56.15
76156;BME280;64906;51.290;7.348;2023-10-08T00:29:34;99398.72;;;20.61;56.20
76156;BME280;64906;51.290;7.348;2023-10-08T00:32:04;99411.38;;;20.62;56.15
76156;BME280;64906;51.290;7.348;2023-10-08T00:34:37;99403.16;;;20.57;56.33
76156;BME280;64906;51.290;7.348;2023-10-08T00:37:07;99389.13;;;20.63;56.21
76156;BME280;64906;51.290;7.348;2023-10-08T00:39:34;99372.97;;;20.62;56.26
76156;BME280;64906;51.290;7.348;2023-10-08T00:42:02;99365.28;;;20.64;56.06
76156;BME280;64906;51.290;7.348;2023-10-08T00:44:32;99404.47;;;20.64;56.28
76156;BME280;64906;51.290;7.348;2023-10-08T00:47:16;99418.47;;;20.63;56.32
76156;BME280;64906;51.290;7.348;2023-10-08T00:49:47;99423.97;;;20.63;56.17
76156;BME280;64906;51.290;7.348;2023-10-08T00:52:28;99421.78;;;20.65;55.94
76156;BME280;64906;51.290;7.348;2023-10-08T00:55:05;99403.69;;;20.64;56.16
76156;BME280;64906;51.290;7.348;2023-10-08T00:57:36;99419.88;;;20.60;56.19
76156;BME280;64906;51.290;7.348;2023-10-08T01:00:04;99405.88;;;20.62;56.16
76156;BME280;64906;51.290;7.348;2023-10-08T01:02:32;99418.47;;;20.63;56.39
76156;BME280;64906;51.290;7.348;2023-10-08T01:05:20;99426.44;;;20.64;56.17
76156;BME280;64906;51.290;7.348;2023-10-08T01:07:52;99418.19;;;20.74;55.84
76156;BME280;64906;51.290;7.348;2023-10-08T01:10:17;99414.38;;;20.70;56.16
76156;BME280;64906;51.290;7.348;2023-10-08T01:12:47;99416.03;;;20.61;56.46
76156;BME280;64906;51.290;7.348;2023-10-08T01:15:32;99421.78;;;20.65;55.99
76156;BME280;64906;51.290;7.348;2023-10-08T01:18:01;99414.91;;;20.67;55.89
76156;BME280;64906;51.290;7.348;2023-10-08T01:20:29;99407.22;;;20.64;56.56
76156;BME280;64906;51.290;7.348;2023-10-08T01:23:06;99404.75;;;20.63;56.16
76156;BME280;64906;51.290;7.348;2023-10-08T01:25:36;99411.94;;;20.59;56.26
76156;BME280;64906;51.290;7.348;2023-10-08T01:28:01;99428.09;;;20.65;56.22
76156;BME280;64906;51.290;7.348;2023-10-08T01:30:34;99432.75;;;20.65;56.25
76156;BME280;64906;51.290;7.348;2023-10-08T01:33:06;99431.34;;;20.67;56.25
76156;BME280;64906;51.290;7.348;2023-10-08T01:35:35;99426.44;;;20.64;56.14
76156;BME280;64906;51.290;7.348;2023-10-08T01:38:00;99430.00;;;20.65;56.30
76156;BME280;64906;51.290;7.348;2023-10-08T01:40:26;99438.78;;;20.62;56.23
76156;BME280;64906;51.290;7.348;2023-10-08T01:42:52;99443.16;;;20.63;56.43
76156;BME280;64906;51.290;7.348;2023-10-08T01:45:17;99443.16;;;20.63;56.45
76156;BME280;64906;51.290;7.348;2023-10-08T01:47:43;99447.56;;;20.64;56.19
76156;BME280;64906;51.290;7.348;2023-10-08T01:50:09;99447.81;;;20.67;56.33
76156;BME280;64906;51.290;7.348;2023-10-08T01:52:49;99449.19;;;20.70;55.88
76156;BME280;64906;51.290;7.348;2023-10-08T01:55:14;99443.16;;;20.68;55.84
76156;BME280;64906;51.290;7.348;2023-10-08T01:57:44;99443.72;;;20.65;56.14
76156;BME280;64906;51.290;7.348;2023-10-08T02:00:10;99438.53;;;20.63;56.31
76156;BME280;64906;51.290;7.348;2023-10-08T02:02:36;99430.56;;;20.67;56.10
76156;BME280;64906;51.290;7.348;2023-10-08T02:05:01;99431.91;;;20.64;55.88
76156;BME280;64906;51.290;7.348;2023-10-08T02:07:30;99435.22;;;20.61;56.07
76156;BME280;64906;51.290;7.348;2023-10-08T02:09:56;99437.69;;;20.68;55.98
76156;BME280;64906;51.290;7.348;2023-10-08T02:12:22;99443.16;;;20.63;56.34
76156;BME280;64906;51.290;7.348;2023-10-08T02:14:47;99438.25;;;20.65;56.28
76156;BME280;64906;51.290;7.348;2023-10-08T02:17:14;99449.22;;;20.65;56.29
76156;BME280;64906;51.290;7.348;2023-10-08T02:19:39;99437.13;;;20.61;55.88
76156;BME280;64906;51.290;7.348;2023-10-08T02:22:07;99433.88;;;20.64;56.06
76156;BME280;64906;51.290;7.348;2023-10-08T02:24:35;99438.25;;;20.65;56.14
76156;BME280;64906;51.290;7.348;2023-10-08T02:27:01;99437.13;;;20.66;56.29
76156;BME280;64906;51.290;7.348;2023-10-08T02:29:28;99428.91;;;20.66;56.25
76156;BME280;64906;51.290;7.348;2023-10-08T02:31:53;99427.00;;;20.61;56.22
76156;BME280;64906;51.290;7.348;2023-10-08T02:34:22;99420.44;;;20.62;56.14
76156;BME280;64906;51.290;7.348;2023-10-08T02:36:47;99432.19;;;20.63;56.14
76156;BME280;64906;51.290;7.348;2023-10-08T02:39:13;99419.59;;;20.62;56.04
76156;BME280;64906;51.290;7.348;2023-10-08T02:41:43;99395.19;;;20.65;55.81
76156;BME280;64906;51.290;7.348;2023-10-08T02:44:11;99420.38;;;20.67;56.08
76156;BME280;64906;51.290;7.348;2023-10-08T02:46:42;99410.53;;;20.61;56.06
76156;BME280;64906;51.290;7.348;2023-10-08T02:49:09;99403.13;;;20.62;56.43
76156;BME280;64906;51.290;7.348;2023-10-08T02:51:42;99372.97;;;20.62;55.94
76156;BME280;64906;51.290;7.348;2023-10-08T02:54:10;99374.03;;;20.66;55.91
76156;BME280;64906;51.290;7.348;2023-10-08T02:56:52;99353.19;;;20.70;56.07
76156;BME280;64906;51.290;7.348;2023-10-08T02:59:23;99366.91;;;20.65;56.17
76156;BME280;64906;51.290;7.348;2023-10-08T03:01:50;99383.66;;;20.63;56.09
76156;BME280;64906;51.290;7.348;2023-10-08T03:04:15;99416.28;;;20.65;56.01
76156;BME280;64906;51.290;7.348;2023-10-08T03:06:47;99399.56;;;20.66;56.12
76156;BME280;64906;51.290;7.348;2023-10-08T03:09:20;99405.59;;;20.63;55.80
76156;BME280;64906;51.290;7.348;2023-10-08T03:11:48;99386.13;;;20.60;56.11
76156;BME280;64906;51.290;7.348;2023-10-08T03:14:17;99391.06;;;20.63;56.07
76156;BME280;64906;51.290;7.348;2023-10-08T03:16:53;99419.88;;;20.55;56.35
76156;BME280;64906;51.290;7.348;2023-10-08T03:19:21;99434.94;;;20.63;56.27
76156;BME280;64906;51.290;7.348;2023-10-08T03:21:48;99444.56;;;20.60;55.96
76156;BME280;64906;51.290;7.348;2023-10-08T03:24:17;99441.00;;;20.60;56.20
76156;BME280;64906;51.290;7.348;2023-10-08T03:26:56;99428.13;;;20.55;56.46
76156;BME280;64906;51.290;7.348;2023-10-08T03:29:32;99440.72;;;20.56;56.27
76156;BME280;64906;51.290;7.348;2023-10-08T03:31:57;99430.56;;;20.57;56.33
76156;BME280;64906;51.290;7.348;2023-10-08T03:34:22;99445.41;;;20.56;56.31
76156;BME280;64906;51.290;7.348;2023-10-08T03:36:52;99448.66;;;20.58;56.22
76156;BME280;64906;51.290;7.348;2023-10-08T03:39:24;99463.22;;;20.58;56.19
76156;BME280;64906;51.290;7.348;2023-10-08T03:42:06;99461.59;;;20.57;55.99
76156;BME280;64906;51.290;7.348;2023-10-08T03:44:34;99447.59;;;20.59;56.03
76156;BME280;64906;51.290;7.348;2023-10-08T03:47:02;99479.41;;;20.55;56.06
76156;BME280;64906;51.290;7.348;2023-10-08T03:49:35;99461.88;;;20.56;56.19
76156;BME280;64906;51.290;7.348;2023-10-08T03:52:03;99453.88;;;20.54;56.18
76156;BME280;64906;51.290;7.348;2023-10-08T03:54:32;99435.78;;;20.53;56.38
76156;BME280;64906;51.290;7.348;2023-10-08T03:57:01;99430.31;;;20.53;56.37
76156;BME280;64906;51.290;7.348;2023-10-08T03:59:29;99425.66;;;20.54;56.20
76156;BME280;64906;51.290;7.348;2023-10-08T04:02:00;99432.22;;;20.58;56.20
76156;BME280;64906;51.290;7.348;2023-10-08T04:04:49;99427.00;;;20.51;56.41
76156;BME280;64906;51.290;7.348;2023-10-08T04:07:26;99410.00;;;20.54;56.37
76156;BME280;64906;51.290;7.348;2023-10-08T04:10:04;99408.38;;;20.53;56.13
76156;BME280;64906;51.290;7.348;2023-10-08T04:12:50;99407.53;;;20.53;56.55
76156;BME280;64906;51.290;7.348;2023-10-08T04:15:19;99405.63;;;20.53;56.28
76156;BME280;64906;51.290;7.348;2023-10-08T04:17:45;99421.53;;;20.56;56.22
76156;BME280;64906;51.290;7.348;2023-10-08T04:20:14;99419.59;;;20.57;55.93
76156;BME280;64906;51.290;7.348;2023-10-08T04:23:09;99458.00;;;20.52;56.62
76156;BME280;64906;51.290;7.348;2023-10-08T04:25:46;99422.63;;;20.50;56.24
76156;BME280;64906;51.290;7.348;2023-10-08T04:28:18;99454.44;;;20.51;56.47
76156;BME280;64906;51.290;7.348;2023-10-08T04:30:46;99459.94;;;20.51;56.06
76156;BME280;64906;51.290;7.348;2023-10-08T04:33:13;99473.91;;;20.50;56.46
76156;BME280;64906;51.290;7.348;2023-10-08T04:35:48;99483.25;;;20.49;56.47
76156;BME280;64906;51.290;7.348;2023-10-08T04:38:22;99481.06;;;20.51;56.44
76156;BME280;64906;51.290;7.348;2023-10-08T04:40:49;99468.16;;;20.51;56.45
76156;BME280;64906;51.290;7.348;2023-10-08T04:43:17;99471.72;;;20.52;56.43
76156;BME280;64906;51.290;7.348;2023-10-08T04:45:50;99455.00;;;20.48;56.61
76156;BME280;64906;51.290;7.348;2023-10-08T04:48:15;99453.63;;;20.51;56.41
76156;BME280;64906;51.290;7.348;2023-10-08T04:50:46;99466.25;;;20.47;56.39
76156;BME280;64906;51.290;7.348;2023-10-08T04:53:11;99458.28;;;20.50;55.92
76156;BME280;64906;51.290;7.348;2023-10-08T04:55:41;99445.66;;;20.49;56.07
76156;BME280;64906;51.290;7.348;2023-10-08T04:58:13;99451.16;;;20.49;56.28
76156;BME280;64906;51.290;7.348;2023-10-08T05:00:46;99447.31;;;20.45;56.28
76156;BME280;64906;51.290;7.348;2023-10-08T05:03:24;99465.13;;;20.48;56.48
76156;BME280;64906;51.290;7.348;2023-10-08T05:05:57;99463.78;;;20.50;56.55
76156;BME280;64906;51.290;7.348;2023-10-08T05:08:39;99436.06;;;20.47;56.55
76156;BME280;64906;51.290;7.348;2023-10-08T05:11:27;99447.31;;;20.50;56.50
76156;BME280;64906;51.290;7.348;2023-10-08T05:14:14;99448.69;;;20.48;56.28
76156;BME280;64906;51.290;7.348;2023-10-08T05:16:59;99471.19;;;20.45;56.07
76156;BME280;64906;51.290;7.348;2023-10-08T05:19:43;99479.69;;;20.48;56.22
76156;BME280;64906;51.290;7.348;2023-10-08T05:22:27;99493.13;;;20.50;56.26
76156;BME280;64906;51.290;7.348;2023-10-08T05:24:53;99511.75;;;20.48;56.65
76156;BME280;64906;51.290;7.348;2023-10-08T05:27:37;99519.47;;;20.46;56.25
76156;BME280;64906;51.290;7.348;2023-10-08T05:30:06;99518.34;;;20.47;56.58
76156;BME280;64906;51.290;7.348;2023-10-08T05:32:45;99532.06;;;20.47;56.31
76156;BME280;64906;51.290;7.348;2023-10-08T05:35:32;99546.91;;;20.51;56.55
76156;BME280;64906;51.290;7.348;2023-10-08T05:38:07;99543.88;;;20.52;56.22
76156;BME280;64906;51.290;7.348;2023-10-08T05:40:44;99540.31;;;20.52;56.13
76156;BME280;64906;51.290;7.348;2023-10-08T05:43:32;99512.88;;;20.47;56.47
76156;BME280;64906;51.290;7.348;2023-10-08T05:46:11;99510.69;;;20.44;56.64
76156;BME280;64906;51.290;7.348;2023-10-08T05:48:56;99506.28;;;20.48;56.25
76156;BME280;64906;51.290;7.348;2023-10-08T05:51:31;99518.91;;;20.44;56.55
76156;BME280;64906;51.290;7.348;2023-10-08T05:54:24;99516.72;;;20.46;56.47
76156;BME280;64906;51.290;7.348;2023-10-08T05:56:59;99505.75;;;20.46;56.60
76156;BME280;64906;51.290;7.348;2023-10-08T06:02:17;99486.00;;;20.49;56.70
76156;BME280;64906;51.290;7.348;2023-10-08T06:04:58;99473.34;;;20.53;56.19
76156;BME280;64906;51.290;7.348;2023-10-08T06:07:48;99463.50;;;20.57;56.00
76156;BME280;64906;51.290;7.348;2023-10-08T06:10:28;99489.03;;;20.52;56.55
76156;BME280;64906;51.290;7.348;2023-10-08T06:15:40;99486.00;;;20.49;56.36
76156;BME280;64906;51.290;7.348;2023-10-08T06:18:14;99501.91;;;20.47;56.39
76156;BME280;64906;51.290;7.348;2023-10-08T06:20:42;99511.25;;;20.51;56.30
76156;BME280;64906;51.290;7.348;2023-10-08T06:23:12;99507.66;;;20.45;56.73
76156;BME280;64906;51.290;7.348;2023-10-08T06:25:42;99490.94;;;20.42;56.79
76156;BME280;64906;51.290;7.348;2023-10-08T06:28:17;99498.06;;;20.43;56.62
76156;BME280;64906;51.290;7.348;2023-10-08T06:30:47;99495.59;;;20.41;56.91
76156;BME280;64906;51.290;7.348;2023-10-08T06:33:14;99512.88;;;20.42;56.85
76156;BME280;64906;51.290;7.348;2023-10-08T06:35:39;99528.50;;;20.41;56.78
76156;BME280;64906;51.290;7.348;2023-10-08T06:38:10;99512.88;;;20.42;56.41
76156;BME280;64906;51.290;7.348;2023-10-08T06:40:36;99529.88;;;20.44;56.51
76156;BME280;64906;51.290;7.348;2023-10-08T06:43:02;99526.84;;;20.40;57.05
76156;BME280;64906;51.290;7.348;2023-10-08T06:45:44;99533.69;;;20.43;56.99
76156;BME280;64906;51.290;7.348;2023-10-08T06:48:11;99551.25;;;20.42;56.85
76156;BME280;64906;51.290;7.348;2023-10-08T06:50:44;99556.19;;;20.45;56.51
76156;BME280;64906;51.290;7.348;2023-10-08T06:53:10;99551.81;;;20.49;56.39
76156;BME280;64906;51.290;7.348;2023-10-08T06:55:41;99526.03;;;20.45;56.44
76156;BME280;64906;51.290;7.348;2023-10-08T06:58:07;99533.47;;;20.44;56.64
76156;BME280;64906;51.290;7.348;2023-10-08T07:00:35;99531.50;;;20.45;56.51
76156;BME280;64906;51.290;7.348;2023-10-08T07:03:07;99531.25;;;20.46;56.45
76156;BME280;64906;51.290;7.348;2023-10-08T07:05:35;99551.28;;;20.47;56.78
76156;BME280;64906;51.290;7.348;2023-10-08T07:08:09;99534.81;;;20.47;56.77
76156;BME280;64906;51.290;7.348;2023-10-08T07:10:38;99554.56;;;20.44;56.59
76156;BME280;64906;51.290;7.348;2023-10-08T07:13:03;99578.41;;;20.48;56.52
76156;BME280;64906;51.290;7.348;2023-10-08T07:15:30;99583.63;;;20.50;56.61
76156;BME280;64906;51.290;7.348;2023-10-08T07:17:56;99590.78;;;20.46;56.74
76156;BME280;64906;51.290;7.348;2023-10-08T07:20:22;99583.06;;;20.48;56.73
76156;BME280;64906;51.290;7.348;2023-10-08T07:22:48;99583.91;;;20.48;56.75
76156;BME280;64906;51.290;7.348;2023-10-08T07:25:22;99568.00;;;20.50;56.32
76156;BME280;64906;51.290;7.348;2023-10-08T07:27:48;99582.00;;;20.54;56.26
76156;BME280;64906;51.290;7.348;2023-10-08T07:30:14;99596.00;;;20.52;56.21
76156;BME280;64906;51.290;7.348;2023-10-08T07:32:52;99604.50;;;20.51;56.28
76156;BME280;64906;51.290;7.348;2023-10-08T07:35:23;99613.25;;;20.48;56.46
76156;BME280;64906;51.290;7.348;2023-10-08T07:37:51;99624.22;;;20.48;56.61
76156;BME280;64906;51.290;7.348;2023-10-08T07:40:19;99624.50;;;20.56;56.48
76156;BME280;64906;51.290;7.348;2023-10-08T07:42:47;99626.97;;;20.53;56.57
76156;BME280;64906;51.290;7.348;2023-10-08T07:45:17;99619.28;;;20.45;56.79
76156;BME280;64906;51.290;7.348;2023-10-08T07:47:43;99618.72;;;20.48;57.09
76156;BME280;64906;51.290;7.348;2023-10-08T07:50:09;99611.06;;;20.50;56.96
76156;BME280;64906;51.290;7.348;2023-10-08T07:52:38;99597.63;;;20.48;57.42
76156;BME280;64906;51.290;7.348;2023-10-08T07:55:04;99583.06;;;20.53;57.21
76156;BME280;64906;51.290;7.348;2023-10-08T07:57:30;99576.50;;;20.54;57.43
76156;BME280;64906;51.290;7.348;2023-10-08T07:59:56;99584.19;;;20.57;57.43
76156;BME280;64906;51.290;7.348;2023-10-08T08:02:29;99581.19;;;20.63;57.25
76156;BME280;64906;51.290;7.348;2023-10-08T08:04:57;99588.28;;;20.69;56.96
76156;BME280;64906;51.290;7.348;2023-10-08T08:07:22;99606.69;;;20.64;57.42
76156;BME280;64906;51.290;7.348;2023-10-08T08:09:51;99610.78;;;20.61;57.59
76156;BME280;64906;51.290;7.348;2023-10-08T08:12:18;99603.66;;;20.55;57.86
76156;BME280;64906;51.290;7.348;2023-10-08T08:14:44;99610.50;;;20.43;58.33
76156;BME280;64906;51.290;7.348;2023-10-08T08:17:10;99611.91;;;20.50;57.59
76156;BME280;64906;51.290;7.348;2023-10-08T08:19:47;99619.28;;;20.55;57.78
76156;BME280;64906;51.290;7.348;2023-10-08T08:22:13;99613.53;;;20.56;57.47
76156;BME280;64906;51.290;7.348;2023-10-08T08:24:52;99621.50;;;20.58;57.61
76156;BME280;64906;51.290;7.348;2023-10-08T08:27:21;99614.94;;;20.59;57.64
76156;BME280;64906;51.290;7.348;2023-10-08T08:29:53;99627.81;;;20.58;57.65
76156;BME280;64906;51.290;7.348;2023-10-08T08:32:22;99627.81;;;20.58;57.81
76156;BME280;64906;51.290;7.348;2023-10-08T08:34:48;99638.50;;;20.50;58.44
76156;BME280;64906;51.290;7.348;2023-10-08T08:37:19;99643.44;;;20.58;58.13
76156;BME280;64906;51.290;7.348;2023-10-08T08:39:50;99647.25;;;20.47;58.02
76156;BME280;64906;51.290;7.348;2023-10-08T08:42:20;99642.28;;;20.29;58.85
76156;BME280;64906;51.290;7.348;2023-10-08T08:44:48;99641.19;;;20.35;58.73
76156;BME280;64906;51.290;7.348;2023-10-08T08:47:17;99634.91;;;20.39;58.48
76156;BME280;64906;51.290;7.348;2023-10-08T08:49:44;99641.75;;;20.42;58.23
76156;BME280;64906;51.290;7.348;2023-10-08T08:52:11;99637.09;;;20.37;58.37
76156;BME280;64906;51.290;7.348;2023-10-08T08:54:39;99641.22;;;20.45;58.32
76156;BME280;64906;51.290;7.348;2023-10-08T08:57:15;99642.31;;;20.44;58.50
76156;BME280;64906;51.290;7.348;2023-10-08T08:59:52;99635.19;;;20.48;58.19
76156;BME280;64906;51.290;7.348;2023-10-08T09:02:19;99629.16;;;20.41;58.55
76156;BME280;64906;51.290;7.348;2023-10-08T09:04:47;99632.19;;;20.44;58.53
76156;BME280;64906;51.290;7.348;2023-10-08T09:07:13;99643.97;;;20.45;58.53
76156;BME280;64906;51.290;7.348;2023-10-08T09:09:39;99641.75;;;20.42;58.97
76156;BME280;64906;51.290;7.348;2023-10-08T09:12:05;99650.00;;;20.42;58.84
76156;BME280;64906;51.290;7.348;2023-10-08T09:14:34;99645.34;;;20.42;58.44
76156;BME280;64906;51.290;7.348;2023-10-08T09:17:00;99645.06;;;20.44;58.73
76156;BME280;64906;51.290;7.348;2023-10-08T09:19:26;99655.22;;;20.48;58.56
76156;BME280;64906;51.290;7.348;2023-10-08T09:22:11;99657.97;;;20.48;58.31
76156;BME280;64906;51.290;7.348;2023-10-08T09:24:39;99662.88;;;20.41;58.90
76156;BME280;64906;51.290;7.348;2023-10-08T09:27:06;99675.25;;;20.44;58.53
76156;BME280;64906;51.290;7.348;2023-10-08T09:29:32;99672.50;;;20.44;58.30
76156;BME280;64906;51.290;7.348;2023-10-08T09:32:03;99676.88;;;20.45;58.49
76156;BME280;64906;51.290;7.348;2023-10-08T09:34:31;99676.88;;;20.50;58.40
76156;BME280;64906;51.290;7.348;2023-10-08T09:36:58;99685.94;;;20.45;58.23
76156;BME280;64906;51.290;7.348;2023-10-08T09:39:26;99684.06;;;20.56;58.32
76156;BME280;64906;51.290;7.348;2023-10-08T09:41:55;99685.16;;;20.60;57.93
76156;BME280;64906;51.290;7.348;2023-10-08T09:44:21;99693.38;;;20.60;57.91
76156;BME280;64906;51.290;7.348;2023-10-08T09:46:52;99700.25;;;20.57;57.87
76156;BME280;64906;51.290;7.348;2023-10-08T09:49:24;99702.16;;;20.62;57.94
76156;BME280;64906;51.290;7.348;2023-10-08T09:51:52;99706.25;;;20.59;57.71
76156;BME280;64906;51.290;7.348;2023-10-08T09:54:23;99707.06;;;20.50;58.23
76156;BME280;64906;51.290;7.348;2023-10-08T09:56:51;99706.53;;;20.58;58.00
76156;BME280;64906;51.290;7.348;2023-10-08T09:59:18;99707.63;;;20.57;57.77
76156;BME280;64906;51.290;7.348;2023-10-08T10:01:46;99718.59;;;20.57;57.83
76156;BME280;64906;51.290;7.348;2023-10-08T10:04:22;99715.56;;;20.53;58.06
76156;BME280;64906;51.290;7.348;2023-10-08T10:06:49;99712.28;;;20.56;57.85
76156;BME280;64906;51.290;7.348;2023-10-08T10:09:23;99707.91;;;20.60;57.88
76156;BME280;64906;51.290;7.348;2023-10-08T10:11:50;99696.94;;;20.60;58.14
76156;BME280;64906;51.290;7.348;2023-10-08T10:14:15;99697.25;;;20.69;57.68
76156;BME280;64906;51.290;7.348;2023-10-08T10:16:43;99694.50;;;20.69;57.62
76156;BME280;64906;51.290;7.348;2023-10-08T10:19:20;99690.66;;;20.70;57.74
76156;BME280;64906;51.290;7.348;2023-10-08T10:21:46;99689.25;;;20.72;57.68
76156;BME280;64906;51.290;7.348;2023-10-08T10:24:32;99697.50;;;20.72;57.76
76156;BME280;64906;51.290;7.348;2023-10-08T10:27:15;99702.19;;;20.77;57.64
76156;BME280;64906;51.290;7.348;2023-10-08T10:29:43;99697.50;;;20.72;57.54
76156;BME280;64906;51.290;7.348;2023-10-08T10:32:12;99695.88;;;20.71;57.75
76156;BME280;64906;51.290;7.348;2023-10-08T10:34:41;99701.66;;;20.80;57.61
76156;BME280;64906;51.290;7.348;2023-10-08T10:37:07;99710.16;;;20.78;57.72
76156;BME280;64906;51.290;7.348;2023-10-08T10:39:57;99705.47;;;20.89;57.31
76156;BME280;64906;51.290;7.348;2023-10-08T10:42:26;99710.44;;;20.82;57.43
76156;BME280;64906;51.290;7.348;2023-10-08T10:44:54;99704.66;;;20.78;57.62
76156;BME280;64906;51.290;7.348;2023-10-08T10:47:21;99710.69;;;20.80;57.63
76156;BME280;64906;51.290;7.348;2023-10-08T10:49:48;99710.69;;;20.75;58.02
76156;BME280;64906;51.290;7.348;2023-10-08T10:52:21;99709.88;;;20.75;57.49
76156;BME280;64906;51.290;7.348;2023-10-08T10:55:07;99717.56;;;20.78;57.57
76156;BME280;64906;51.290;7.348;2023-10-08T10:57:50;99723.59;;;20.85;57.51
76156;BME280;64906;51.290;7.348;2023-10-08T11:00:20;99721.41;;;20.82;57.30
76156;BME280;64906;51.290;7.348;2023-10-08T11:02:58;99720.31;;;20.83;57.58
76156;BME280;64906;51.290;7.348;2023-10-08T11:05:59;99724.41;;;20.80;57.50
76156;BME280;64906;51.290;7.348;2023-10-08T11:08:30;99718.09;;;20.75;57.62
76156;BME280;64906;51.290;7.348;2023-10-08T11:10:59;99719.19;;;20.79;57.64
76156;BME280;64906;51.290;7.348;2023-10-08T11:13:32;99719.47;;;20.77;57.72
76156;BME280;64906;51.290;7.348;2023-10-08T11:16:05;99711.50;;;20.76;57.68
76156;BME280;64906;51.290;7.348;2023-10-08T11:18:31;99708.75;;;20.76;57.55
76156;BME280;64906;51.290;7.348;2023-10-08T11:21:08;99715.09;;;20.76;57.56
76156;BME280;64906;51.290;7.348;2023-10-08T11:23:45;99710.13;;;20.73;57.43
76156;BME280;64906;51.290;7.348;2023-10-08T11:26:38;99698.91;;;20.80;57.35
76156;BME280;64906;51.290;7.348;2023-10-08T11:29:19;99695.31;;;20.79;57.45
76156;BME280;64906;51.290;7.348;2023-10-08T11:31:53;99695.03;;;20.81;57.24
76156;BME280;64906;51.290;7.348;2023-10-08T11:34:19;99695.03;;;20.81;57.62
76156;BME280;64906;51.290;7.348;2023-10-08T11:36:52;99697.78;;;20.86;57.23
76156;BME280;64906;51.290;7.348;2023-10-08T11:39:18;99693.94;;;20.87;57.48
76156;BME280;64906;51.290;7.348;2023-10-08T11:42:00;99693.94;;;20.87;57.45
76156;BME280;64906;51.290;7.348;2023-10-08T11:44:32;99693.72;;;20.93;57.38
76156;BME280;64906;51.290;7.348;2023-10-08T11:47:01;99690.97;;;20.88;57.12
76156;BME280;64906;51.290;7.348;2023-10-08T11:49:34;99697.53;;;20.92;56.88
76156;BME280;64906;51.290;7.348;2023-10-08T11:52:02;99696.97;;;20.95;56.68
76156;BME280;64906;51.290;7.348;2023-10-08T11:54:27;99696.16;;;20.95;56.94
76156;BME280;64906;51.290;7.348;2023-10-08T11:56:54;99686.28;;;20.89;56.87
76156;BME280;64906;51.290;7.348;2023-10-08T11:59:21;99684.91;;;20.91;56.98
76156;BME280;64906;51.290;7.348;2023-10-08T12:01:50;99685.72;;;20.92;56.94
76156;BME280;64906;51.290;7.348;2023-10-08T12:04:16;99686.00;;;20.95;56.91
76156;BME280;64906;51.290;7.348;2023-10-08T12:06:42;99672.00;;;20.92;57.10
76156;BME280;64906;51.290;7.348;2023-10-08T12:09:17;99673.09;;;20.96;57.26
76156;BME280;64906;51.290;7.348;2023-10-08T12:11:44;99667.63;;;20.96;56.79
76156;BME280;64906;51.290;7.348;2023-10-08T12:14:09;99665.97;;;20.95;56.90
76156;BME280;64906;51.290;7.348;2023-10-08T12:16:35;99665.47;;;20.98;57.05
76156;BME280;64906;51.290;7.348;2023-10-08T12:19:02;99661.59;;;20.99;56.63
76156;BME280;64906;51.290;7.348;2023-10-08T12:21:31;99663.78;;;20.97;56.73
76156;BME280;64906;51.290;7.348;2023-10-08T12:23:57;99656.94;;;20.99;56.75
76156;BME280;64906;51.290;7.348;2023-10-08T12:26:23;99647.88;;;20.99;56.94
76156;BME280;64906;51.290;7.348;2023-10-08T12:28:49;99655.00;;;20.95;57.03
76156;BME280;64906;51.290;7.348;2023-10-08T12:31:16;99655.53;;;20.92;57.36
76156;BME280;64906;51.290;7.348;2023-10-08T12:33:42;99652.81;;;21.02;57.11
76156;BME280;64906;51.290;7.348;2023-10-08T12:36:09;99653.38;;;20.99;56.98
76156;BME280;64906;51.290;7.348;2023-10-08T12:38:42;99653.66;;;21.07;56.90
76156;BME280;64906;51.290;7.348;2023-10-08T12:41:09;99656.38;;;21.12;56.71
76156;BME280;64906;51.290;7.348;2023-10-08T12:43:41;99656.94;;;21.14;56.44
76156;BME280;64906;51.290;7.348;2023-10-08T12:46:17;99657.75;;;21.05;57.01
76156;BME280;64906;51.290;7.348;2023-10-08T12:48:50;99653.66;;;21.07;56.87
76156;BME280;64906;51.290;7.348;2023-10-08T12:51:23;99646.25;;;21.13;56.64
76156;BME280;64906;51.290;7.348;2023-10-08T12:53:50;99649.78;;;21.13;56.73
76156;BME280;64906;51.290;7.348;2023-10-08T12:56:20;99644.56;;;21.12;56.81
76156;BME280;64906;51.290;7.348;2023-10-08T12:58:56;99648.97;;;21.13;56.98
76156;BME280;64906;51.290;7.348;2023-10-08T13:01:22;99639.34;;;21.10;56.27
76156;BME280;64906;51.290;7.348;2023-10-08T13:03:47;99633.88;;;21.00;57.14
76156;BME280;64906;51.290;7.348;2023-10-08T13:06:19;99632.53;;;21.03;56.69
76156;BME280;64906;51.290;7.348;2023-10-08T13:08:48;99632.25;;;21.09;56.73
76156;BME280;64906;51.290;7.348;2023-10-08T13:11:14;99619.06;;;21.06;56.92
76156;BME280;64906;51.290;7.348;2023-10-08T13:13:40;99610.28;;;21.09;56.55
76156;BME280;64906;51.290;7.348;2023-10-08T13:16:06;99615.19;;;21.12;56.74
76156;BME280;64906;51.290;7.348;2023-10-08T13:18:34;99608.59;;;21.13;56.66
76156;BME280;64906;51.290;7.348;2023-10-08T13:21:03;99602.59;;;21.06;56.85
76156;BME280;64906;51.290;7.348;2023-10-08T13:23:29;99595.44;;;21.10;56.54
76156;BME280;64906;51.290;7.348;2023-10-08T13:25:54;99602.84;;;21.10;56.65